createdAt,value
2022-07-28T00:00:51.451Z,4.25
2022-07-28T00:05:44.756Z,3.83
2022-07-28T00:10:38.851Z,3.92
2022-07-28T00:13:06.906Z,3.78
2022-07-28T00:15:33.851Z,3.90
2022-07-28T00:20:28.066Z,3.37
2022-07-28T00:22:54.649Z,3.92
2022-07-28T00:25:21.219Z,3.90
2022-07-28T00:30:14.930Z,3.53
2022-07-28T00:32:41.716Z,3.67
2022-07-28T00:35:09.210Z,2.75
2022-07-28T00:37:36.164Z,3.78
2022-07-28T00:40:08.289Z,3.42
2022-07-28T00:42:34.910Z,3.72
2022-07-28T00:47:28.120Z,3.33
2022-07-28T00:50:02.014Z,3.58
2022-07-28T00:52:28.688Z,3.42
2022-07-28T00:54:55.327Z,3.75
2022-07-28T00:59:48.519Z,3.38
2022-07-28T01:02:15.867Z,3.42
2022-07-28T01:04:42.722Z,3.88
2022-07-28T01:07:28.113Z,3.88
2022-07-28T01:10:13.885Z,3.30
2022-07-28T01:12:58.722Z,3.50
2022-07-28T01:15:40.864Z,3.88
2022-07-28T01:18:15.699Z,3.67
2022-07-28T01:20:47.942Z,3.55
2022-07-28T01:23:32.868Z,3.75
2022-07-28T01:26:17.453Z,3.88
2022-07-28T01:28:49.818Z,3.50
2022-07-28T01:31:23.703Z,3.65
2022-07-28T01:33:56.716Z,3.17
2022-07-28T01:36:29.156Z,3.00
2022-07-28T01:38:57.759Z,3.63
2022-07-28T01:41:28.696Z,3.30
2022-07-28T01:43:58.996Z,4.07
2022-07-28T01:46:27.225Z,3.85
2022-07-28T01:48:56.633Z,4.28
2022-07-28T01:51:26.932Z,3.78
2022-07-28T01:53:56.998Z,3.53
2022-07-28T01:56:24.986Z,4.10
2022-07-28T01:58:52.699Z,4.70
2022-07-28T02:01:21.310Z,4.45
2022-07-28T02:03:50.118Z,5.25
2022-07-28T02:06:20.631Z,4.53
2022-07-28T02:08:49.143Z,3.92
2022-07-28T02:11:34.090Z,4.47
2022-07-28T02:14:01.458Z,4.82
2022-07-28T02:16:29.422Z,5.35
2022-07-28T02:18:59.157Z,4.43
2022-07-28T02:21:26.639Z,4.07
2022-07-28T02:23:54.924Z,4.70
2022-07-28T02:26:31.654Z,4.25
2022-07-28T02:29:01.742Z,5.00
2022-07-28T02:31:32.069Z,5.18
2022-07-28T02:34:03.083Z,5.07
2022-07-28T02:36:38.050Z,5.45
2022-07-28T02:39:17.949Z,5.47
2022-07-28T02:44:22.257Z,6.25
2022-07-28T02:46:53.229Z,5.43
2022-07-28T02:49:25.303Z,4.72
2022-07-28T02:51:55.136Z,5.28
2022-07-28T02:54:23.567Z,5.32
2022-07-28T02:56:54.249Z,5.32
2022-07-28T02:59:21.949Z,5.32
2022-07-28T03:01:50.050Z,5.30
2022-07-28T03:04:38.829Z,6.22
2022-07-28T03:07:06.504Z,4.95
2022-07-28T03:09:42.403Z,6.15
2022-07-28T03:12:12.806Z,5.43
2022-07-28T03:14:39.789Z,5.32
2022-07-28T03:17:06.705Z,5.60
2022-07-28T03:19:33.496Z,5.20
2022-07-28T03:22:00.719Z,5.32
2022-07-28T03:24:30.950Z,6.15
2022-07-28T03:27:24.769Z,5.25
2022-07-28T03:30:03.656Z,5.75
2022-07-28T03:32:34.395Z,5.50
2022-07-28T03:35:01.523Z,4.95
2022-07-28T03:37:33.475Z,6.25
2022-07-28T03:40:00.842Z,5.07
2022-07-28T03:42:29.400Z,5.22
2022-07-28T03:44:56.591Z,6.53
2022-07-28T03:47:24.669Z,4.90
2022-07-28T03:49:51.509Z,5.88
2022-07-28T03:52:18.603Z,5.65
2022-07-28T03:54:46.019Z,5.15
2022-07-28T03:57:13.850Z,5.28
2022-07-28T04:02:07.136Z,7.47
2022-07-28T04:04:33.733Z,7.28
2022-07-28T04:07:00.315Z,7.60
2022-07-28T04:09:27.035Z,7.10
2022-07-28T04:11:53.665Z,6.65
2022-07-28T04:16:47.319Z,7.87
2022-07-28T04:19:14.376Z,7.22
2022-07-28T04:21:41.120Z,6.82
2022-07-28T04:24:09.922Z,6.63
2022-07-28T04:26:36.843Z,5.65
2022-07-28T04:29:03.607Z,6.13
2022-07-28T04:31:30.864Z,6.00
2022-07-28T04:33:57.538Z,5.53
2022-07-28T04:38:50.549Z,5.45
2022-07-28T04:43:45.487Z,5.15
2022-07-28T04:46:14.939Z,5.70
2022-07-28T04:48:41.967Z,5.18
2022-07-28T04:51:08.673Z,5.05
2022-07-28T04:53:35.657Z,5.35
2022-07-28T04:56:02.921Z,5.07
2022-07-28T04:58:31.074Z,4.55
2022-07-28T05:00:57.790Z,4.90
2022-07-28T05:03:24.475Z,5.85
2022-07-28T05:05:53.893Z,5.60
2022-07-28T05:08:22.603Z,5.85
2022-07-28T05:10:52.957Z,4.70
2022-07-28T05:13:19.551Z,4.78
2022-07-28T05:15:46.242Z,5.47
2022-07-28T05:18:12.823Z,5.35
2022-07-28T05:20:39.347Z,4.65
2022-07-28T05:23:06.095Z,5.30
2022-07-28T05:25:32.652Z,4.75
2022-07-28T05:27:59.272Z,5.10
2022-07-28T05:30:26.074Z,5.32
2022-07-28T05:32:53.911Z,4.20
2022-07-28T05:35:20.517Z,5.20
2022-07-28T05:37:47.102Z,5.68
2022-07-28T05:40:15.891Z,4.97
2022-07-28T05:42:43.167Z,4.90
2022-07-28T05:45:15.627Z,5.28
2022-07-28T05:47:52.791Z,5.68
2022-07-28T05:50:21.798Z,5.22
2022-07-28T05:52:49.286Z,4.53
2022-07-28T05:55:16.257Z,5.15
2022-07-28T05:57:43.707Z,4.93
2022-07-28T06:00:13.772Z,5.07
2022-07-28T06:02:41.624Z,4.97
2022-07-28T06:05:08.807Z,5.43
2022-07-28T06:07:42.907Z,5.10
2022-07-28T06:10:13.330Z,5.47
2022-07-28T06:12:45.707Z,5.90
2022-07-28T06:15:21.587Z,5.88
2022-07-28T06:17:52.406Z,5.80
2022-07-28T06:20:20.268Z,5.85
2022-07-28T06:22:49.931Z,6.57
2022-07-28T06:25:19.359Z,5.85
2022-07-28T06:27:47.072Z,6.35
2022-07-28T06:30:14.453Z,6.72
2022-07-28T06:32:41.121Z,6.63
2022-07-28T06:35:08.711Z,6.82
2022-07-28T06:37:35.267Z,6.68
2022-07-28T06:40:02.367Z,6.78
2022-07-28T06:42:28.926Z,7.22
2022-07-28T06:44:59.355Z,7.50
2022-07-28T06:47:26.778Z,5.95
2022-07-28T06:49:53.353Z,7.75
2022-07-28T06:52:20.797Z,6.85
2022-07-28T06:54:50.600Z,7.47
2022-07-28T06:57:22.760Z,7.07
2022-07-28T06:59:55.121Z,6.35
2022-07-28T07:02:26.356Z,5.95
2022-07-28T07:04:54.965Z,6.47
2022-07-28T07:11:52.423Z,7.55
2022-07-28T07:14:19.250Z,6.53
2022-07-28T07:16:46.142Z,6.07
2022-07-28T07:19:15.906Z,6.97
2022-07-28T07:21:42.669Z,5.75
2022-07-28T07:26:38.473Z,6.20
2022-07-28T07:29:06.645Z,5.55
2022-07-28T08:48:12.758Z,5.78
2022-07-28T08:50:39.655Z,5.05
2022-07-28T08:53:08.099Z,5.22
2022-07-28T08:55:35.796Z,4.65
2022-07-28T08:58:03.233Z,5.45
2022-07-28T09:00:30.089Z,6.13
2022-07-28T09:02:57.243Z,5.50
2022-07-28T09:05:24.610Z,5.72
2022-07-28T09:07:55.328Z,5.25
2022-07-28T09:10:23.473Z,5.18
2022-07-28T09:12:50.237Z,5.03
2022-07-28T09:15:16.763Z,5.68
2022-07-28T09:17:43.334Z,5.60
2022-07-28T09:20:11.904Z,4.57
2022-07-28T09:22:59.357Z,5.07
2022-07-28T09:27:53.189Z,4.70
2022-07-28T09:30:31.246Z,5.15
2022-07-28T09:33:40.880Z,5.45
2022-07-28T09:36:15.558Z,4.47
2022-07-28T09:38:42.157Z,4.72
2022-07-28T09:41:08.750Z,5.40
2022-07-28T09:43:39.677Z,6.35
2022-07-28T09:46:17.646Z,4.97
2022-07-28T09:48:50.653Z,5.10
2022-07-28T09:51:20.391Z,4.95
2022-07-28T09:53:47.102Z,5.63
2022-07-28T09:56:14.056Z,4.55
2022-07-28T09:58:41.471Z,4.95
2022-07-28T10:01:15.527Z,4.82
2022-07-28T10:03:50.132Z,5.18
2022-07-28T10:06:24.976Z,4.13
2022-07-28T10:08:52.779Z,4.22
2022-07-28T10:11:30.243Z,4.78
2022-07-28T10:14:03.890Z,4.80
2022-07-28T10:16:52.663Z,4.93
2022-07-28T10:19:19.356Z,4.53
2022-07-28T10:21:49.665Z,4.25
2022-07-28T10:24:27.537Z,4.30
2022-07-28T10:26:57.102Z,4.45
2022-07-28T10:29:24.426Z,3.70
2022-07-28T10:31:57.874Z,3.75
2022-07-28T10:34:50.601Z,4.13
2022-07-28T10:37:25.688Z,4.03
2022-07-28T10:40:06.491Z,4.32
2022-07-28T10:42:37.328Z,3.80
2022-07-28T10:45:05.248Z,3.72
2022-07-28T10:47:35.731Z,4.07
2022-07-28T10:50:04.294Z,3.80
2022-07-28T10:52:50.727Z,4.32
2022-07-28T10:55:44.639Z,4.38
2022-07-28T10:58:25.138Z,4.05
2022-07-28T11:00:57.129Z,3.60
2022-07-28T11:03:47.470Z,4.00
2022-07-28T11:06:27.209Z,3.83
2022-07-28T11:08:55.045Z,4.05
2022-07-28T11:11:43.677Z,4.30
2022-07-28T11:14:34.022Z,4.10
2022-07-28T11:17:03.972Z,3.40
2022-07-28T11:19:55.650Z,4.10
2022-07-28T11:22:32.653Z,3.47
2022-07-28T11:25:19.443Z,4.50
2022-07-28T11:27:49.880Z,3.70
2022-07-28T11:30:16.479Z,4.15
2022-07-28T11:32:54.963Z,3.35
2022-07-28T11:35:26.524Z,3.97
2022-07-28T11:38:02.432Z,3.83
2022-07-28T11:40:31.262Z,3.83
2022-07-28T11:43:36.414Z,3.08
2022-07-28T11:46:04.866Z,4.30
2022-07-28T11:48:39.557Z,3.85
2022-07-28T11:51:06.235Z,3.58
2022-07-28T11:53:47.765Z,3.58
2022-07-28T11:56:37.194Z,3.38
2022-07-28T11:59:05.972Z,3.63
2022-07-28T12:01:36.974Z,3.45
2022-07-28T12:04:20.235Z,3.47
2022-07-28T12:06:51.529Z,4.20
2022-07-28T12:09:23.282Z,3.90
2022-07-28T12:11:54.812Z,3.65
2022-07-28T12:14:29.033Z,2.95
2022-07-28T12:16:56.271Z,3.70
2022-07-28T12:19:24.193Z,3.22
2022-07-28T12:21:59.461Z,3.58
2022-07-28T12:24:31.572Z,2.60
2022-07-28T12:27:00.370Z,3.15
2022-07-28T12:29:35.472Z,3.08
2022-07-28T12:32:09.802Z,3.53
2022-07-28T12:34:38.052Z,3.15
2022-07-28T12:37:09.583Z,3.58
2022-07-28T12:39:39.548Z,2.90
2022-07-28T12:42:09.166Z,3.00
2022-07-28T12:44:43.601Z,3.45
2022-07-28T12:47:12.852Z,2.42
2022-07-28T12:49:42.118Z,2.53
2022-07-28T12:52:22.227Z,3.67
2022-07-28T12:54:55.349Z,3.30
2022-07-28T12:57:49.463Z,3.05
2022-07-28T13:00:20.220Z,3.35
2022-07-28T13:02:47.663Z,3.55
2022-07-28T13:05:55.513Z,2.80
2022-07-28T13:08:27.249Z,3.08
2022-07-28T13:10:57.570Z,2.40
2022-07-28T13:13:25.304Z,3.05
2022-07-28T13:16:21.069Z,2.95
2022-07-28T13:18:51.816Z,3.40
2022-07-28T13:21:56.642Z,3.47
2022-07-28T13:24:27.865Z,2.78
2022-07-28T13:26:54.515Z,3.63
2022-07-28T13:29:22.345Z,2.95
2022-07-28T13:31:49.018Z,2.63
2022-07-28T13:34:16.666Z,3.25
2022-07-28T13:36:43.729Z,2.90
2022-07-28T13:39:10.861Z,2.75
2022-07-28T13:41:57.828Z,2.40
2022-07-28T13:44:24.283Z,3.33
2022-07-28T13:46:51.562Z,2.97
2022-07-28T13:49:21.495Z,2.67
2022-07-28T13:51:48.923Z,2.80
2022-07-28T13:54:18.485Z,3.13
2022-07-28T13:56:45.608Z,3.08
2022-07-28T13:59:13.762Z,2.78
2022-07-28T14:01:42.436Z,3.10
2022-07-28T14:04:15.044Z,3.72
2022-07-28T14:06:47.361Z,3.05
2022-07-28T14:09:18.851Z,3.13
2022-07-28T14:11:49.396Z,2.80
2022-07-28T14:14:20.195Z,2.90
2022-07-28T14:16:48.106Z,2.72
2022-07-28T14:19:16.520Z,3.47
2022-07-28T14:21:50.220Z,2.85
2022-07-28T14:24:17.497Z,2.80
2022-07-28T14:26:44.314Z,2.45
2022-07-28T14:29:11.558Z,2.38
2022-07-28T14:31:38.458Z,2.83
2022-07-28T14:34:05.166Z,2.97
2022-07-28T14:36:31.693Z,2.67
2022-07-28T14:38:58.313Z,2.67
2022-07-28T14:41:25.900Z,3.42
2022-07-28T14:43:53.077Z,3.08
2022-07-28T14:46:21.612Z,2.47
2022-07-28T14:48:49.073Z,2.80
2022-07-28T14:51:15.685Z,2.50
2022-07-28T14:53:45.282Z,3.15
2022-07-28T14:56:18.023Z,2.63
2022-07-28T14:58:44.592Z,3.08
2022-07-28T15:01:11.188Z,3.08
2022-07-28T15:03:37.797Z,2.90
2022-07-28T15:06:10.361Z,2.85
2022-07-28T15:08:37.113Z,2.95
2022-07-28T15:11:03.655Z,3.20
2022-07-28T15:13:30.263Z,3.28
2022-07-28T15:15:57.085Z,3.47
2022-07-28T15:18:24.576Z,3.67
2022-07-28T15:20:51.564Z,3.40
2022-07-28T15:23:18.322Z,3.75
2022-07-28T15:25:47.842Z,2.78
2022-07-28T15:28:17.698Z,3.42
2022-07-28T15:30:51.713Z,3.53
2022-07-28T15:33:19.706Z,3.80
2022-07-28T15:35:59.329Z,4.10
2022-07-28T15:38:28.251Z,3.80
2022-07-28T15:40:56.012Z,2.78
2022-07-28T15:43:23.882Z,3.45
2022-07-28T15:45:51.005Z,3.17
2022-07-28T15:48:17.676Z,3.42
2022-07-28T15:50:48.398Z,5.28
2022-07-28T15:53:16.071Z,3.40
2022-07-28T15:55:46.281Z,3.95
2022-07-28T15:58:15.582Z,3.78
2022-07-28T16:00:44.432Z,3.30
2022-07-28T16:03:11.502Z,3.05
2022-07-28T16:05:38.601Z,3.10
2022-07-28T16:08:05.325Z,3.17
2022-07-28T16:10:31.844Z,3.40
2022-07-28T16:12:58.501Z,3.45
2022-07-28T16:15:26.854Z,4.05
2022-07-28T16:17:54.503Z,3.55
2022-07-28T16:20:21.067Z,3.92
2022-07-28T16:22:47.618Z,3.63
2022-07-28T16:25:17.532Z,3.88
2022-07-28T16:27:44.675Z,3.15
2022-07-28T16:30:12.204Z,2.65
2022-07-28T16:32:39.402Z,3.25
2022-07-28T16:35:07.200Z,3.50
2022-07-28T16:37:35.500Z,3.17
2022-07-28T16:40:03.724Z,3.45
2022-07-28T16:42:30.361Z,3.67
2022-07-28T16:44:57.233Z,3.40
2022-07-28T16:47:23.733Z,3.03
2022-07-28T16:49:50.275Z,3.30
2022-07-28T16:52:16.741Z,3.53
2022-07-28T16:54:43.264Z,3.80
2022-07-28T16:57:09.851Z,3.38
2022-07-28T16:59:37.945Z,3.13
2022-07-28T17:02:12.453Z,3.57
2022-07-28T17:04:39.036Z,3.42
2022-07-28T17:07:06.805Z,3.33
2022-07-28T17:09:33.399Z,3.47
2022-07-28T17:11:59.976Z,4.00
2022-07-28T17:14:27.383Z,3.42
2022-07-28T17:16:53.857Z,3.60
2022-07-28T17:19:21.972Z,4.05
2022-07-28T17:21:48.661Z,3.35
2022-07-28T17:24:15.778Z,3.17
2022-07-28T17:27:35.179Z,3.03
2022-07-28T17:29:29.461Z,3.42
2022-07-28T17:31:56.007Z,4.00
2022-07-28T17:34:23.859Z,3.35
2022-07-28T17:36:50.484Z,3.17
2022-07-28T17:39:17.064Z,4.10
2022-07-28T17:41:43.543Z,3.28
2022-07-28T17:44:10.080Z,3.42
2022-07-28T17:46:36.706Z,3.10
2022-07-28T17:49:05.556Z,2.83
2022-07-28T17:51:32.224Z,2.30
2022-07-28T17:53:58.775Z,3.17
2022-07-28T17:56:26.162Z,3.10
2022-07-28T17:58:52.747Z,2.83
2022-07-28T18:01:19.392Z,3.08
2022-07-28T18:03:56.511Z,2.78
2022-07-28T18:06:34.306Z,2.85
2022-07-28T18:09:08.072Z,3.03
2022-07-28T18:11:57.961Z,2.65
2022-07-28T18:14:29.393Z,2.55
2022-07-28T18:16:57.073Z,2.50
2022-07-28T18:19:23.720Z,2.92
2022-07-28T18:21:50.346Z,2.70
2022-07-28T18:24:18.088Z,2.78
2022-07-28T18:26:44.984Z,2.72
2022-07-28T18:29:11.698Z,2.85
2022-07-28T18:31:45.501Z,2.83
2022-07-28T18:34:14.107Z,2.65
2022-07-28T18:36:40.903Z,2.58
2022-07-28T18:39:07.456Z,2.63
2022-07-28T18:41:34.431Z,2.45
2022-07-28T18:44:13.827Z,2.88
2022-07-28T18:46:40.654Z,3.30
2022-07-28T18:49:07.300Z,2.70
2022-07-28T18:51:33.891Z,2.90
2022-07-28T18:56:26.851Z,2.53
2022-07-28T19:01:22.572Z,2.58
2022-07-28T19:03:49.179Z,2.55
2022-07-28T19:08:42.261Z,2.15
2022-07-28T19:13:35.270Z,2.67
2022-07-28T19:18:28.317Z,2.63
2022-07-28T19:23:21.451Z,2.50
2022-07-28T19:25:48.127Z,2.55
2022-07-28T19:30:41.271Z,2.85
2022-07-28T19:33:08.437Z,2.50
2022-07-28T19:35:34.969Z,2.53
2022-07-28T19:42:59.201Z,2.97
2022-07-28T19:45:26.182Z,2.83
2022-07-28T19:47:54.511Z,2.72
2022-07-28T19:50:21.217Z,2.40
2022-07-28T19:52:47.772Z,2.10
2022-07-28T19:55:17.735Z,3.00
2022-07-28T19:57:45.396Z,2.45
2022-07-28T20:00:13.147Z,2.97
2022-07-28T20:02:40.490Z,2.47
2022-07-28T20:05:08.257Z,2.95
2022-07-28T20:07:35.037Z,3.55
2022-07-28T20:10:02.670Z,2.95
2022-07-28T20:12:34.220Z,3.08
2022-07-28T20:15:06.069Z,3.00
2022-07-28T20:17:38.963Z,3.05
2022-07-28T20:20:08.729Z,2.88
2022-07-28T20:22:35.821Z,3.17
2022-07-28T20:25:02.273Z,3.10
2022-07-28T20:27:28.825Z,2.97
2022-07-28T20:32:21.752Z,2.85
2022-07-28T20:34:48.448Z,3.22
2022-07-28T20:37:32.694Z,2.47
2022-07-28T20:40:01.909Z,2.30
2022-07-28T20:42:28.396Z,2.15
2022-07-28T20:44:54.936Z,2.58
2022-07-28T20:49:49.855Z,2.30
2022-07-28T20:52:16.329Z,2.65
2022-07-28T20:57:09.328Z,1.75
2022-07-28T21:02:02.303Z,2.30
2022-07-28T21:04:28.909Z,2.60
2022-07-28T21:09:29.066Z,2.63
2022-07-28T21:14:22.084Z,2.70
2022-07-28T21:16:48.672Z,2.65
2022-07-28T21:21:41.661Z,2.08
2022-07-28T21:24:08.434Z,2.50
2022-07-28T21:26:35.003Z,2.72
2022-07-28T21:32:02.283Z,2.70
2022-07-28T21:34:29.965Z,2.47
2022-07-28T21:36:57.207Z,2.55
2022-07-28T21:41:50.077Z,2.72
2022-07-28T21:44:16.720Z,2.72
2022-07-28T21:46:45.654Z,2.80
2022-07-28T21:49:12.408Z,3.00
2022-07-28T21:51:39.090Z,2.80
2022-07-28T21:54:05.905Z,2.72
2022-07-28T21:56:34.437Z,2.55
2022-07-28T21:59:02.256Z,2.72
2022-07-28T22:03:18.255Z,3.08
2022-07-28T22:08:11.468Z,2.92
2022-07-28T22:13:04.780Z,3.22
2022-07-28T22:15:31.351Z,3.20
2022-07-28T22:20:24.507Z,2.65
2022-07-28T22:22:51.114Z,2.53
2022-07-28T22:27:44.167Z,2.50
2022-07-28T22:32:37.245Z,4.07
2022-07-28T22:35:04.135Z,3.20
2022-07-28T22:37:30.721Z,3.00
2022-07-28T22:42:23.795Z,2.80
2022-07-28T22:47:16.862Z,3.03
2022-07-28T22:52:09.878Z,3.45
2022-07-28T22:54:40.275Z,3.85
2022-07-28T22:57:07.166Z,3.15
2022-07-28T22:59:37.229Z,2.80
2022-07-28T23:02:06.917Z,3.80
2022-07-28T23:04:33.501Z,3.45
2022-07-28T23:09:26.871Z,3.30
2022-07-28T23:11:56.178Z,2.78
2022-07-28T23:14:23.364Z,3.30
2022-07-28T23:16:50.257Z,2.70
2022-07-28T23:19:17.148Z,3.00
2022-07-28T23:21:43.967Z,2.17
2022-07-28T23:24:10.573Z,2.72
2022-07-28T23:29:04.023Z,2.38
2022-07-28T23:31:30.702Z,2.20
2022-07-28T23:33:57.752Z,2.75
2022-07-28T23:36:26.521Z,2.45
2022-07-28T23:38:57.667Z,2.60
2022-07-28T23:41:25.868Z,3.05
2022-07-28T23:43:52.714Z,3.22
2022-07-28T23:46:19.377Z,3.30
2022-07-28T23:48:46.093Z,3.53
2022-07-28T23:51:14.174Z,3.00
2022-07-28T23:53:43.906Z,3.97
2022-07-28T23:56:10.487Z,4.10
